Time;durP1;ratioP1;P1;durP2;ratioP2;P2;SDS_P1;SDS_P2;PMS_P1;PMS_P2;Temp;Humidity;BMP_temperature;BMP_pressure;BME280_temperature;BME280_humidity;BME280_pressure;Samples;Min_cycle;Max_cycle;Signal;HPM_P1;HPM_P2
2022/09/26 00:01:50;;;;;;;6.20;3.63;;;;;;;7.68;98.71;100845.69;4986576;28;20226;-77
2022/09/26 00:04:22;;;;;;;5.17;3.23;;;;;;;7.70;98.95;100847.47;4994643;28;20201;-77
2022/09/26 00:06:48;;;;;;;4.70;3.20;;;;;;;7.75;99.75;100834.88;4997390;28;20199;-76
2022/09/26 00:09:15;;;;;;;6.03;3.40;;;;;;;7.77;99.92;100823.91;4989598;28;20234;-77
2022/09/26 00:11:41;;;;;;;5.07;3.40;;;;;;;7.79;100.00;100823.97;4991414;28;20211;-77
2022/09/26 00:14:11;;;;;;;4.83;3.20;;;;;;;7.80;100.00;100811.28;4993344;28;20195;-77
2022/09/26 00:16:37;;;;;;;8.50;3.30;;;;;;;7.87;100.00;100813.16;5001194;28;20273;-77
2022/09/26 00:19:03;;;;;;;4.90;3.43;;;;;;;7.86;100.00;100814.00;4997795;28;20245;-77
2022/09/26 00:21:29;;;;;;;6.60;3.60;;;;;;;7.91;100.00;100811.56;4998614;28;20216;-76
2022/09/26 00:23:55;;;;;;;5.27;3.37;;;;;;;7.93;100.00;100803.13;4985131;28;20207;-76
2022/09/26 00:26:23;;;;;;;5.17;3.20;;;;;;;7.90;100.00;100804.75;5001951;28;20219;-76
2022/09/26 00:28:49;;;;;;;8.00;3.80;;;;;;;7.91;100.00;100801.38;4995749;28;20190;-76
2022/09/26 00:31:21;;;;;;;5.50;3.60;;;;;;;7.91;100.00;100797.16;4995129;28;20200;-77
2022/09/26 00:33:47;;;;;;;5.13;3.57;;;;;;;7.93;100.00;100794.66;4997939;28;20193;-76
2022/09/26 00:36:13;;;;;;;4.57;3.03;;;;;;;7.95;100.00;100783.66;4995936;28;20187;-76
2022/09/26 00:38:39;;;;;;;7.40;3.37;;;;;;;7.93;100.00;100789.53;4997034;28;20187;-77
2022/09/26 00:41:06;;;;;;;5.97;3.10;;;;;;;7.94;100.00;100788.72;4990318;28;20202;-77
2022/09/26 00:43:37;;;;;;;7.20;3.10;;;;;;;7.95;100.00;100782.78;5000664;28;20203;-77
2022/09/26 00:46:28;;;;;;;4.60;3.10;;;;;;;7.97;100.00;100776.91;4992984;28;20189;-76
2022/09/26 00:48:57;;;;;;;4.03;2.97;;;;;;;7.99;100.00;100766.75;5000815;28;20209;-76
2022/09/26 00:51:22;;;;;;;7.50;3.03;;;;;;;7.94;99.85;100763.22;4995896;28;20207;-76
2022/09/26 00:53:52;;;;;;;7.93;3.67;;;;;;;7.94;99.94;100769.19;4999530;28;20204;-76
2022/09/26 00:56:23;;;;;;;4.53;3.40;;;;;;;7.93;100.00;100761.50;4999795;28;20183;-76
2022/09/26 00:59:02;;;;;;;12.17;3.23;;;;;;;7.93;100.00;100759.81;4998012;28;20229;-76
2022/09/26 01:01:28;;;;;;;6.67;3.33;;;;;;;7.93;100.00;100757.25;5015109;28;20685;-77
2022/09/26 01:03:54;;;;;;;6.13;3.20;;;;;;;7.91;99.72;100755.47;4993658;28;20211;-78
2022/09/26 01:06:21;;;;;;;5.30;2.90;;;;;;;7.86;99.69;100759.59;4995229;28;20230;-77
2022/09/26 01:08:57;;;;;;;5.37;3.27;;;;;;;7.89;100.00;100749.50;4995855;28;20223;-77
2022/09/26 01:11:23;;;;;;;9.20;3.60;;;;;;;7.93;99.73;100749.59;4992373;28;20203;-77
2022/09/26 01:13:50;;;;;;;4.30;3.57;;;;;;;7.96;100.00;100746.28;4995216;28;20877;-77
2022/09/26 01:16:16;;;;;;;3.87;3.37;;;;;;;7.98;100.00;100735.31;5000116;28;20183;-76
2022/09/26 01:18:42;;;;;;;6.03;3.40;;;;;;;8.02;99.87;100732.00;4995723;28;20666;-77
2022/09/26 01:21:46;;;;;;;8.47;4.17;;;;;;;8.07;99.70;100719.41;5033137;23;20231;-73
2022/09/26 01:24:24;;;;;;;6.37;3.47;;;;;;;8.10;99.85;100716.91;5001746;28;20681;-73
2022/09/26 01:27:08;;;;;;;5.00;2.97;;;;;;;8.12;99.71;100707.66;5018525;28;20555;-73
2022/09/26 01:30:04;;;;;;;4.03;3.33;;;;;;;8.13;100.00;100706.81;5023787;28;20207;-73
2022/09/26 01:32:49;;;;;;;6.10;3.27;;;;;;;8.16;99.42;100687.34;5011329;28;20548;-72
2022/09/26 01:35:27;;;;;;;6.03;3.87;;;;;;;8.19;99.99;100692.53;5013560;28;20175;-73
2022/09/26 01:38:23;;;;;;;6.87;3.80;;;;;;;8.11;100.00;100694.00;5016738;28;20192;-72
2022/09/26 01:40:59;;;;;;;7.97;3.50;;;;;;;8.12;100.00;100689.78;4980825;28;20208;-72
2022/09/26 01:43:34;;;;;;;5.93;3.40;;;;;;;8.12;100.00;100685.56;5022106;28;20725;-72
2022/09/26 01:46:10;;;;;;;5.20;3.63;;;;;;;8.14;100.00;100678.81;5009620;28;20245;-73
2022/09/26 01:48:47;;;;;;;6.07;3.37;;;;;;;8.16;100.00;100684.78;5004363;28;20779;-73
2022/09/26 01:51:18;;;;;;;5.40;3.40;;;;;;;8.17;100.00;100683.13;4984880;28;20294;-73
2022/09/26 01:54:11;;;;;;;8.93;3.70;;;;;;;8.18;100.00;100683.16;4996046;28;20210;-72
2022/09/26 01:56:39;;;;;;;5.73;3.37;;;;;;;8.16;100.00;100678.84;5001687;28;20191;-73
2022/09/26 01:59:27;;;;;;;10.63;3.80;;;;;;;8.21;100.00;100678.16;5018737;28;20176;-73
2022/09/26 02:02:01;;;;;;;6.80;3.50;;;;;;;8.26;100.00;100679.16;5016965;28;20199;-73
2022/09/26 02:04:33;;;;;;;6.07;3.43;;;;;;;8.29;99.81;100674.13;5015486;28;20191;-73
2022/09/26 02:07:07;;;;;;;7.70;3.50;;;;;;;8.28;99.73;100666.44;5018526;28;20227;-73
2022/09/26 02:09:52;;;;;;;4.83;3.67;;;;;;;8.30;100.00;100668.19;5003701;28;20678;-72
2022/09/26 02:12:23;;;;;;;7.60;3.70;;;;;;;8.33;100.00;100662.31;4989837;28;20184;-73
2022/09/26 02:14:53;;;;;;;5.37;3.70;;;;;;;8.29;100.00;100663.09;4992177;28;20574;-72
2022/09/26 02:17:25;;;;;;;9.13;3.80;;;;;;;8.31;100.00;100657.19;4998497;28;20195;-73
2022/09/26 02:20:00;;;;;;;8.80;3.93;;;;;;;8.34;100.00;100651.31;5020432;28;20463;-72
2022/09/26 02:22:31;;;;;;;9.33;3.93;;;;;;;8.32;100.00;100642.72;4999525;28;20615;-73
2022/09/26 02:24:57;;;;;;;5.23;3.67;;;;;;;8.36;100.00;100644.53;4979889;28;20282;-73
2022/09/26 02:27:26;;;;;;;6.27;3.73;;;;;;;8.39;100.00;100639.53;4983230;28;20188;-72
2022/09/26 02:29:51;;;;;;;6.50;3.90;;;;;;;8.42;100.00;100630.25;4997425;28;20215;-72
2022/09/26 02:32:22;;;;;;;6.93;3.60;;;;;;;8.44;100.00;100623.47;4979113;28;20219;-73
2022/09/26 02:34:49;;;;;;;10.43;3.60;;;;;;;8.47;100.00;100625.28;4974967;28;20196;-73
2022/09/26 02:37:16;;;;;;;7.00;4.03;;;;;;;8.49;100.00;100616.81;4999416;28;20183;-73
2022/09/26 02:39:45;;;;;;;8.33;4.07;;;;;;;8.55;100.00;100616.97;5004606;28;20200;-72
2022/09/26 02:42:20;;;;;;;7.00;4.17;;;;;;;8.57;100.00;100617.00;4982377;28;20208;-72
2022/09/26 02:45:14;;;;;;;6.87;3.73;;;;;;;8.56;100.00;100605.91;4990672;28;20187;-72
2022/09/26 02:48:31;;;;;;;9.47;4.67;;;;;;;8.60;100.00;100607.72;5002627;28;20187;-72
2022/09/26 02:51:05;;;;;;;7.00;4.13;;;;;;;8.61;100.00;100596.69;4950935;28;20572;-72
2022/09/26 02:53:46;;;;;;;7.80;4.10;;;;;;;8.61;100.00;100596.69;5002960;28;20242;-72
2022/09/26 02:56:30;;;;;;;6.27;4.03;;;;;;;8.65;100.00;100587.41;4983894;28;20722;-72
2022/09/26 02:59:21;;;;;;;6.93;4.60;;;;;;;8.68;100.00;100590.03;4974594;28;20184;-72
2022/09/26 03:01:54;;;;;;;6.87;3.97;;;;;;;8.66;100.00;100587.44;4982351;28;20209;-72
2022/09/26 03:04:44;;;;;;;7.63;4.07;;;;;;;8.65;100.00;100587.41;4991893;28;20176;-73
2022/09/26 03:07:17;;;;;;;8.93;4.23;;;;;;;8.64;100.00;100588.22;5013925;28;20651;-72
2022/09/26 03:09:43;;;;;;;7.77;4.27;;;;;;;8.64;100.00;100578.03;5000571;28;20759;-72
2022/09/26 03:12:10;;;;;;;5.53;4.13;;;;;;;8.61;100.00;100580.53;4976268;28;20515;-72
2022/09/26 03:14:39;;;;;;;7.03;3.90;;;;;;;8.64;100.00;100572.91;5001220;28;20187;-72
2022/09/26 03:17:05;;;;;;;9.10;4.60;;;;;;;8.64;100.00;100563.59;4981240;28;20187;-71
2022/09/26 03:19:53;;;;;;;7.40;4.60;;;;;;;8.65;100.00;100555.09;4998916;28;20212;-72
2022/09/26 03:22:19;;;;;;;9.90;4.90;;;;;;;8.67;100.00;100550.03;4994647;28;20223;-72
2022/09/26 03:24:45;;;;;;;9.97;4.50;;;;;;;8.69;100.00;100545.81;4979524;28;20338;-72
2022/09/26 03:27:15;;;;;;;7.90;4.23;;;;;;;8.70;100.00;100550.09;4985940;28;20176;-72
2022/09/26 03:29:40;;;;;;;10.27;4.97;;;;;;;8.67;100.00;100543.22;4978463;28;20207;-72
2022/09/26 03:32:12;;;;;;;10.53;4.67;;;;;;;8.68;100.00;100537.31;4975465;28;20180;-72
2022/09/26 03:34:38;;;;;;;8.13;4.33;;;;;;;8.69;100.00;100543.25;4990138;28;20318;-72
2022/09/26 03:37:05;;;;;;;8.60;4.40;;;;;;;8.68;100.00;100532.19;4981412;28;20649;-72
2022/09/26 03:39:31;;;;;;;7.40;4.47;;;;;;;8.67;100.00;100530.44;4989594;28;20212;-72
2022/09/26 03:42:04;;;;;;;6.27;4.13;;;;;;;8.67;100.00;100535.56;4978622;28;20254;-72
2022/09/26 03:44:30;;;;;;;9.73;5.07;;;;;;;8.67;100.00;100519.41;4978564;28;20187;-72
2022/09/26 03:47:11;;;;;;;8.67;4.67;;;;;;;8.68;100.00;100521.13;4987312;28;20180;-73
2022/09/26 03:49:39;;;;;;;7.37;4.70;;;;;;;8.67;100.00;100519.41;4970217;28;20208;-72
2022/09/26 03:52:09;;;;;;;4.73;4.07;;;;;;;8.67;100.00;100515.13;4981760;28;20180;-72
2022/09/26 03:54:35;;;;;;;9.63;4.37;;;;;;;8.70;100.00;100510.09;4998392;28;20195;-73
2022/09/26 03:57:00;;;;;;;5.50;4.03;;;;;;;8.71;100.00;100510.97;4989089;28;20191;-72
2022/09/26 03:59:26;;;;;;;8.53;5.03;;;;;;;8.74;100.00;100503.38;4981437;28;20328;-72
2022/09/26 04:01:51;;;;;;;9.57;4.63;;;;;;;8.74;100.00;100499.13;4983031;28;20212;-72
2022/09/26 04:04:17;;;;;;;11.33;4.50;;;;;;;8.77;100.00;100496.66;5019617;28;20854;-72
2022/09/26 04:06:43;;;;;;;10.13;4.40;;;;;;;8.80;100.00;100488.22;5012288;28;20191;-72
2022/09/26 04:09:10;;;;;;;7.10;4.47;;;;;;;8.80;100.00;100483.09;5004953;28;20271;-72
2022/09/26 04:11:36;;;;;;;6.83;4.50;;;;;;;8.84;100.00;100478.06;4974119;28;20185;-72
2022/09/26 04:14:02;;;;;;;7.80;4.10;;;;;;;8.86;100.00;100475.56;4978145;28;20628;-72
2022/09/26 04:16:30;;;;;;;4.87;4.20;;;;;;;8.88;100.00;100476.44;4960119;28;20184;-72
2022/09/26 04:19:13;;;;;;;7.90;4.50;;;;;;;8.89;100.00;100483.28;4994246;28;20196;-72
2022/09/26 04:21:40;;;;;;;9.63;4.50;;;;;;;8.92;100.00;100470.56;4977869;28;20601;-72
2022/09/26 04:24:11;;;;;;;8.13;4.63;;;;;;;8.92;100.00;100451.00;4982156;28;20677;-72
2022/09/26 04:26:39;;;;;;;8.57;4.50;;;;;;;8.95;100.00;100456.19;4970662;28;20176;-72
2022/09/26 04:29:05;;;;;;;11.27;4.50;;;;;;;9.00;100.00;100454.59;4988230;28;20193;-72
2022/09/26 04:31:50;;;;;;;10.50;4.00;;;;;;;9.03;100.00;100444.41;4991546;28;20207;-72
2022/09/26 04:34:17;;;;;;;8.03;4.50;;;;;;;9.02;100.00;100436.72;4981148;28;20194;-73
2022/09/26 04:36:43;;;;;;;6.10;4.40;;;;;;;9.05;100.00;100436.78;4990144;28;20184;-72
2022/09/26 04:39:09;;;;;;;6.40;4.03;;;;;;;9.05;100.00;100436.78;4999133;28;20192;-72
2022/09/26 04:41:36;;;;;;;8.67;4.40;;;;;;;9.10;100.00;100436.03;4997919;28;20681;-72
2022/09/26 04:44:02;;;;;;;6.77;4.40;;;;;;;9.10;100.00;100432.63;4994082;28;20208;-72
2022/09/26 04:46:30;;;;;;;8.97;4.37;;;;;;;9.10;100.00;100427.50;4982039;28;20529;-72
2022/09/26 04:48:58;;;;;;;6.70;3.80;;;;;;;9.11;100.00;100434.31;4998146;28;20183;-72
2022/09/26 04:51:26;;;;;;;6.93;4.40;;;;;;;9.13;100.00;100428.41;4987329;28;20307;-73
2022/09/26 04:53:52;;;;;;;7.33;3.93;;;;;;;9.17;100.00;100426.81;4989246;28;20232;-73
2022/09/26 04:56:26;;;;;;;7.57;3.90;;;;;;;9.16;100.00;100420.81;4950745;29;20187;-73
2022/09/26 04:58:55;;;;;;;6.07;3.80;;;;;;;9.18;100.00;100414.06;4960225;28;20193;-72
2022/09/26 05:01:22;;;;;;;5.57;3.93;;;;;;;9.19;100.00;100417.47;4975314;28;20270;-73
2022/09/26 05:04:02;;;;;;;5.07;3.90;;;;;;;9.20;100.00;100414.94;4980551;28;20278;-72
2022/09/26 05:06:28;;;;;;;12.47;4.60;;;;;;;9.22;100.00;100403.03;4960440;28;20247;-72
2022/09/26 05:08:54;;;;;;;6.57;3.83;;;;;;;9.24;100.00;100406.50;4970387;28;20706;-72
2022/09/26 05:11:33;;;;;;;9.03;4.43;;;;;;;9.27;100.00;100403.13;4959269;28;20185;-72
2022/09/26 05:13:59;;;;;;;5.80;4.10;;;;;;;9.28;100.00;100408.28;4969984;28;20220;-72
2022/09/26 05:16:28;;;;;;;7.13;3.97;;;;;;;9.30;100.00;100401.47;4966024;28;20189;-72
2022/09/26 05:18:56;;;;;;;8.57;4.33;;;;;;;9.31;100.00;100398.09;4944469;29;20220;-72
2022/09/26 05:21:22;;;;;;;3.97;3.50;;;;;;;9.32;100.00;100397.28;4965838;28;20220;-72
2022/09/26 05:26:46;;;;;;;6.20;3.87;;;;;;;9.34;100.00;100395.59;4954745;28;20219;-72
2022/09/26 05:29:12;;;;;;;6.40;4.10;;;;;;;9.38;100.00;100389.69;4945697;29;20317;-73
2022/09/26 05:31:50;;;;;;;7.07;3.77;;;;;;;9.39;100.00;100378.63;4942772;29;20181;-72
2022/09/26 05:34:16;;;;;;;9.57;4.13;;;;;;;9.44;100.00;100381.28;4955245;28;20193;-72
2022/09/26 05:36:41;;;;;;;7.13;3.70;;;;;;;9.48;100.00;100386.47;4972053;28;20185;-72
2022/09/26 05:41:53;;;;;;;8.50;4.40;;;;;;;9.49;100.00;100377.94;4946231;29;20690;-73
2022/09/26 05:44:19;;;;;;;6.33;3.60;;;;;;;9.52;100.00;100378.00;4966254;28;20190;-73
2022/09/26 05:46:46;;;;;;;10.77;3.87;;;;;;;9.54;100.00;100383.16;4965873;28;20200;-72
2022/09/26 05:49:13;;;;;;;6.03;3.80;;;;;;;9.55;100.00;100379.75;4956734;28;20189;-72
2022/09/26 05:51:40;;;;;;;6.23;4.07;;;;;;;9.61;100.00;100377.28;4961163;28;20256;-72
2022/09/26 05:54:06;;;;;;;5.83;3.73;;;;;;;9.61;100.00;100377.28;4960602;28;20196;-72
2022/09/26 05:56:36;;;;;;;5.87;3.53;;;;;;;9.64;100.00;100372.22;4963754;28;20188;-73
2022/09/26 05:59:22;;;;;;;5.77;4.10;;;;;;;9.66;100.00;100368.00;4941415;29;20205;-73
2022/09/26 06:02:06;;;;;;;5.50;3.43;;;;;;;9.67;100.00;100362.06;4959067;28;20219;-72
2022/09/26 06:04:51;;;;;;;7.20;3.77;;;;;;;9.70;100.00;100364.66;4959021;28;20205;-72
2022/09/26 06:07:49;;;;;;;6.30;3.67;;;;;;;9.74;99.88;100356.19;4927010;28;20206;-72
2022/09/26 06:10:31;;;;;;;6.10;3.70;;;;;;;9.74;99.93;100359.63;4979277;28;20208;-72
2022/09/26 06:13:01;;;;;;;5.20;3.73;;;;;;;9.77;100.00;100346.84;4957753;28;20189;-73
2022/09/26 06:15:30;;;;;;;6.67;3.80;;;;;;;9.78;99.43;100350.28;4965751;28;20192;-73
2022/09/26 06:17:58;;;;;;;5.60;3.73;;;;;;;9.83;99.33;100356.31;4960588;28;20204;-72
2022/09/26 06:20:24;;;;;;;6.37;4.13;;;;;;;9.85;99.66;100344.41;4956886;28;20218;-72
2022/09/26 06:22:50;;;;;;;6.20;3.93;;;;;;;9.87;99.41;100345.31;4961368;28;20717;-73
2022/09/26 06:25:15;;;;;;;9.50;4.57;;;;;;;9.85;99.32;100350.38;4966247;28;20185;-73
2022/09/26 06:27:41;;;;;;;6.60;3.80;;;;;;;9.89;99.64;100352.16;4959178;28;20196;-73
2022/09/26 06:30:09;;;;;;;6.03;4.00;;;;;;;9.89;99.11;100344.50;4966244;28;20690;-73
2022/09/26 06:32:36;;;;;;;7.03;4.30;;;;;;;9.91;99.70;100339.41;4959676;28;20185;-72
2022/09/26 06:35:16;;;;;;;8.23;4.23;;;;;;;9.97;99.61;100336.91;4960455;28;20267;-73
2022/09/26 06:38:14;;;;;;;7.00;3.80;;;;;;;9.97;99.43;100340.34;4959520;28;20188;-73
2022/09/26 06:40:39;;;;;;;6.83;4.30;;;;;;;9.99;99.45;100336.09;4978580;28;20574;-73
2022/09/26 06:43:05;;;;;;;6.13;4.13;;;;;;;10.04;99.16;100336.16;4951788;29;20689;-73
2022/09/26 06:45:52;;;;;;;7.90;3.97;;;;;;;10.08;99.11;100333.69;4948290;28;20191;-73
2022/09/26 06:48:36;;;;;;;5.30;4.43;;;;;;;10.14;98.88;100323.53;4948396;28;20568;-73
2022/09/26 06:51:16;;;;;;;8.07;3.90;;;;;;;10.19;98.56;100327.00;4968189;28;20216;-72
2022/09/26 06:53:44;;;;;;;7.20;4.20;;;;;;;10.28;98.39;100323.72;4967435;28;20186;-72
2022/09/26 06:56:12;;;;;;;9.60;4.23;;;;;;;10.35;98.21;100313.56;4961127;28;20526;-72
2022/09/26 06:58:38;;;;;;;6.63;4.20;;;;;;;10.47;97.86;100316.25;4967697;28;20173;-73
2022/09/26 07:01:05;;;;;;;5.60;3.75;;;;;;;10.49;97.40;100323.94;4955031;28;20207;-73
2022/09/26 07:03:51;;;;;;;6.67;4.00;;;;;;;10.52;97.64;100316.31;4959807;28;20397;-73
2022/09/26 07:06:37;;;;;;;5.60;4.07;;;;;;;10.57;97.14;100315.53;4947485;29;20677;-72
2022/09/26 07:09:03;;;;;;;4.87;3.70;;;;;;;10.67;96.97;100314.78;4943723;29;20272;-73
2022/09/26 07:11:46;;;;;;;5.77;4.27;;;;;;;10.66;96.58;100307.94;4962244;28;20321;-72
2022/09/26 07:14:16;;;;;;;9.63;5.17;;;;;;;10.65;96.47;100308.75;4975818;28;20192;-72
2022/09/26 07:16:44;;;;;;;7.17;4.70;;;;;;;10.67;96.54;100304.53;4973963;28;20228;-73
2022/09/26 07:19:25;;;;;;;7.60;4.50;;;;;;;10.74;97.24;100297.78;4977779;28;20219;-73
2022/09/26 07:22:00;;;;;;;7.23;4.93;;;;;;;10.83;96.76;100308.94;4958130;28;20704;-73
2022/09/26 07:24:33;;;;;;;7.93;4.83;;;;;;;10.90;96.77;100299.63;4974496;28;20263;-73
2022/09/26 07:26:58;;;;;;;6.90;4.47;;;;;;;10.90;96.26;100302.19;4974281;28;20967;-72
2022/09/26 07:29:24;;;;;;;7.10;4.57;;;;;;;10.87;96.72;100303.00;4975053;28;20216;-72
2022/09/26 07:31:50;;;;;;;6.50;4.20;;;;;;;10.86;96.09;100297.88;4971993;28;20204;-71
2022/09/26 07:34:35;;;;;;;6.77;4.67;;;;;;;10.88;96.05;100293.63;4980998;28;20188;-71
2022/09/26 07:37:00;;;;;;;9.10;4.27;;;;;;;10.91;95.79;100294.50;4966031;28;20562;-72
2022/09/26 07:39:27;;;;;;;8.17;4.60;;;;;;;10.93;95.93;100284.28;4976899;28;20226;-72
2022/09/26 07:41:52;;;;;;;5.77;4.57;;;;;;;10.98;95.71;100285.19;4980407;28;20216;-72
2022/09/26 07:44:18;;;;;;;6.43;4.57;;;;;;;11.01;95.69;100282.66;4979416;28;20224;-71
2022/09/26 07:52:31;;;;;;;7.13;4.30;;;;;;;11.07;95.87;100275.84;4964417;28;20262;-72
2022/09/26 07:55:21;;;;;;;6.87;5.33;;;;;;;11.09;96.39;100274.19;4970886;28;20280;-72
2022/09/26 07:57:58;;;;;;;7.17;4.80;;;;;;;11.12;96.71;100278.47;4974146;28;20184;-71
2022/09/26 08:00:36;;;;;;;8.13;5.30;;;;;;;11.15;96.40;100274.22;4973648;28;20208;-72
2022/09/26 08:03:17;;;;;;;7.07;4.93;;;;;;;11.19;95.90;100272.53;4973933;28;20216;-72
2022/09/26 08:05:42;;;;;;;8.70;5.70;;;;;;;11.22;95.56;100267.44;4974393;28;20657;-71
2022/09/26 08:08:08;;;;;;;6.43;5.17;;;;;;;11.30;95.47;100269.19;4965250;28;20202;-72
2022/09/26 08:10:52;;;;;;;7.33;4.97;;;;;;;11.34;94.92;100270.94;4969492;28;20295;-72
2022/09/26 08:13:38;;;;;;;7.83;5.20;;;;;;;11.42;94.34;100269.28;4954370;28;20633;-72
2022/09/26 08:16:21;;;;;;;7.87;5.80;;;;;;;11.52;94.23;100258.25;4980432;28;20216;-72
2022/09/26 08:18:52;;;;;;;9.10;5.43;;;;;;;11.56;94.51;100257.41;4981441;28;20247;-72
2022/09/26 08:21:19;;;;;;;8.40;5.70;;;;;;;11.57;94.05;100256.56;4965183;28;20720;-72
2022/09/26 08:23:45;;;;;;;10.27;6.10;;;;;;;11.56;93.94;100251.44;4982326;28;20195;-72
2022/09/26 08:26:29;;;;;;;7.97;5.17;;;;;;;11.66;93.43;100255.81;4970762;28;20211;-72
2022/09/26 08:29:01;;;;;;;10.27;5.43;;;;;;;11.81;92.64;100249.06;4982678;28;20188;-73
2022/09/26 08:31:27;;;;;;;10.40;5.97;;;;;;;11.87;92.59;100258.47;4971917;28;20234;-70
2022/09/26 08:33:53;;;;;;;9.23;5.30;;;;;;;11.87;92.47;100259.34;4977525;28;20324;-72
2022/09/26 08:36:20;;;;;;;8.33;5.20;;;;;;;11.93;92.75;100256.78;4986974;28;20666;-72
2022/09/26 08:39:06;;;;;;;8.77;5.40;;;;;;;11.92;90.88;100257.66;4962388;28;20220;-72
2022/09/26 08:42:00;;;;;;;9.10;5.90;;;;;;;12.12;90.73;100266.25;4950292;28;20220;-72
2022/09/26 08:44:57;;;;;;;9.87;5.87;;;;;;;12.16;90.33;100247.47;4966841;28;20191;-72
2022/09/26 08:47:52;;;;;;;8.63;6.23;;;;;;;12.27;89.44;100253.50;4981281;28;20199;-71
2022/09/26 08:50:49;;;;;;;6.77;5.60;;;;;;;12.38;89.41;100253.50;4967091;28;20740;-72
2022/09/26 08:53:19;;;;;;;7.93;5.90;;;;;;;12.61;87.83;100254.41;4971055;28;20188;-72
2022/09/26 08:55:55;;;;;;;7.70;5.73;;;;;;;12.84;86.10;100245.88;4971944;28;20686;-72
2022/09/26 08:58:30;;;;;;;7.77;5.57;;;;;;;13.24;85.30;100235.63;4982594;28;20184;-72
2022/09/26 09:01:03;;;;;;;6.63;5.00;;;;;;;13.68;84.49;100229.50;4969111;28;20307;-72
2022/09/26 09:03:47;;;;;;;9.33;5.57;;;;;;;13.65;83.04;100221.81;4971658;28;20682;-72
2022/09/26 09:06:13;;;;;;;7.47;5.10;;;;;;;13.65;82.49;100211.53;4969519;28;20188;-72
2022/09/26 09:08:45;;;;;;;7.40;5.40;;;;;;;13.74;81.52;100210.63;4987675;28;20191;-72
2022/09/26 09:11:51;;;;;;;6.70;5.67;;;;;;;14.31;79.55;100200.94;4963139;28;20603;-71
2022/09/26 09:14:34;;;;;;;6.70;5.10;;;;;;;14.52;78.75;100195.66;4970310;28;20192;-72
2022/09/26 09:17:39;;;;;;;9.57;6.07;;;;;;;14.25;78.54;100198.41;4973646;28;20561;-72
2022/09/26 09:20:32;;;;;;;8.87;5.43;;;;;;;13.81;80.03;100199.47;4964647;28;20224;-72
2022/09/26 09:23:49;;;;;;;9.50;5.83;;;;;;;13.55;82.06;100206.41;4965046;28;20266;-72
2022/09/26 09:26:41;;;;;;;13.43;6.47;;;;;;;13.70;83.46;100189.22;4971481;28;20246;-72
2022/09/26 09:29:18;;;;;;;8.40;5.90;;;;;;;13.88;82.09;100189.13;4981447;28;20189;-72
2022/09/26 09:32:00;;;;;;;7.00;5.77;;;;;;;13.76;81.67;100190.91;4980516;28;20193;-72
2022/09/26 09:34:48;;;;;;;12.43;5.87;;;;;;;13.76;80.84;100186.59;4972362;28;20246;-72
2022/09/26 09:37:36;;;;;;;7.83;5.90;;;;;;;13.75;81.41;100190.03;4970079;28;20243;-72
2022/09/26 09:40:38;;;;;;;9.43;5.77;;;;;;;14.02;81.26;100184.78;4965577;28;20227;-72
2022/09/26 09:43:12;;;;;;;6.57;4.70;;;;;;;14.13;78.73;100179.56;4983760;28;20236;-72
2022/09/26 09:45:46;;;;;;;7.00;5.17;;;;;;;14.30;78.27;100175.19;4966123;28;20677;-72
2022/09/26 09:48:12;;;;;;;7.37;4.37;;;;;;;14.59;77.56;100175.88;4966061;28;20716;-72
2022/09/26 09:51:09;;;;;;;7.73;3.90;;;;;;;14.55;76.26;100167.28;4966914;28;20227;-72
2022/09/26 09:54:12;;;;;;;7.10;4.07;;;;;;;14.73;75.90;100179.19;4980772;28;20227;-72
2022/09/26 09:57:01;;;;;;;7.37;3.87;;;;;;;14.72;76.01;100180.03;4984894;28;20242;-72
2022/09/26 09:59:36;;;;;;;8.43;3.80;;;;;;;14.36;76.73;100173.44;4982903;28;20208;-72
2022/09/26 10:02:40;;;;;;;3.87;3.30;;;;;;;14.08;75.66;100173.59;4965194;28;20209;-72
2022/09/26 10:05:23;;;;;;;7.90;3.67;;;;;;;14.09;76.51;100171.00;4962590;28;20658;-72
2022/09/26 10:07:56;;;;;;;5.07;3.97;;;;;;;14.21;76.36;100172.66;4964505;28;20203;-72
2022/09/26 10:11:02;;;;;;;7.43;3.53;;;;;;;14.17;75.65;100171.81;4968883;28;20767;-72
2022/09/26 10:14:02;;;;;;;4.57;3.17;;;;;;;14.44;75.26;100157.91;4936494;28;20293;-72
2022/09/26 10:17:09;;;;;;;7.53;3.67;;;;;;;14.70;73.60;100151.72;4958119;28;20206;-72
2022/09/26 10:19:43;;;;;;;6.53;3.33;;;;;;;14.81;72.10;100149.88;4966016;28;20216;-71
2022/09/26 10:22:36;;;;;;;4.83;3.10;;;;;;;15.33;70.18;100140.75;4976794;28;20209;-72
2022/09/26 10:25:15;;;;;;;6.27;3.03;;;;;;;14.99;71.41;100142.00;4966623;28;20662;-72
2022/09/26 10:27:53;;;;;;;6.87;3.33;;;;;;;14.77;71.58;100137.03;4972060;28;20211;-72
2022/09/26 10:30:30;;;;;;;3.80;2.60;;;;;;;14.70;72.07;100128.53;4981332;28;20215;-72
2022/09/26 10:33:03;;;;;;;4.13;2.60;;;;;;;14.48;74.56;100132.13;4964063;28;20193;-72
2022/09/26 10:35:47;;;;;;;7.63;3.07;;;;;;;14.13;73.80;100131.50;4964065;28;20183;-72
2022/09/26 10:38:21;;;;;;;5.27;3.00;;;;;;;13.91;73.71;100118.78;4979392;28;20189;-72
2022/09/26 10:40:58;;;;;;;5.27;2.60;;;;;;;13.74;74.81;100131.72;4968212;28;20218;-72
2022/09/26 10:43:33;;;;;;;4.73;2.43;;;;;;;13.75;76.42;100123.13;4982221;28;20212;-72
2022/09/26 10:46:22;;;;;;;5.13;2.93;;;;;;;13.63;76.06;100127.50;4960936;28;20291;-72
2022/09/26 10:49:13;;;;;;;6.50;3.07;;;;;;;13.63;76.65;100119.78;4965523;28;20278;-72
2022/09/26 10:52:28;;;;;;;4.63;2.87;;;;;;;13.75;76.26;100120.56;4921471;29;20194;-72
2022/09/26 10:54:58;;;;;;;5.33;2.60;;;;;;;13.86;76.54;100125.66;4963992;28;20208;-72
2022/09/26 10:57:32;;;;;;;6.93;2.80;;;;;;;14.00;76.58;100113.56;4982795;28;20221;-72
2022/09/26 11:00:00;;;;;;;4.23;2.20;;;;;;;14.10;74.27;100102.34;4966641;28;20735;-73
2022/09/26 11:02:27;;;;;;;5.80;2.40;;;;;;;14.21;73.85;100104.00;4959402;28;20640;-72
2022/09/26 11:08:03;;;;;;;5.13;2.20;;;;;;;15.06;68.70;100104.94;4963450;28;20211;-73
2022/09/26 11:10:46;;;;;;;3.10;2.10;;;;;;;15.69;64.84;100090.44;4984135;28;20278;-72
2022/09/26 11:13:22;;;;;;;4.07;2.10;;;;;;;16.15;65.25;100088.91;4965958;28;20193;-72
2022/09/26 11:16:00;;;;;;;2.77;1.83;;;;;;;17.52;58.08;100075.25;4965027;28;20755;-72
2022/09/26 11:18:47;;;;;;;3.67;1.67;;;;;;;21.34;50.41;100044.16;4967429;28;20192;-73
2022/09/26 11:21:36;;;;;;;2.90;1.70;;;;;;;19.27;54.06;100064.00;4982212;28;20226;-73
2022/09/26 11:24:18;;;;;;;2.73;1.73;;;;;;;17.30;56.67;100067.91;4961986;28;20197;-73
2022/09/26 11:26:55;;;;;;;3.43;1.80;;;;;;;16.79;60.35;100053.38;4968005;28;20198;-73
2022/09/26 11:29:40;;;;;;;2.17;1.70;;;;;;;16.42;60.44;100054.91;4961578;28;20665;-72
2022/09/26 11:32:17;;;;;;;4.50;1.80;;;;;;;16.62;60.83;100048.53;4963531;28;20192;-72
2022/09/26 11:35:01;;;;;;;3.17;1.77;;;;;;;17.83;57.73;100042.59;4966354;28;20196;-72
2022/09/26 11:37:51;;;;;;;3.93;1.87;;;;;;;18.12;56.07;100047.09;4967710;28;20223;-73
2022/09/26 11:40:26;;;;;;;6.97;2.10;;;;;;;17.11;59.96;100043.28;4965247;28;20207;-72
2022/09/26 11:43:07;;;;;;;5.50;2.10;;;;;;;16.65;60.70;100034.69;4986112;28;20302;-72
2022/09/26 11:45:44;;;;;;;4.63;2.13;;;;;;;15.86;63.58;100050.63;4963059;28;20280;-72
2022/09/26 11:48:44;;;;;;;5.47;2.10;;;;;;;15.47;66.95;100040.84;4969092;28;20192;-72
2022/09/26 11:52:24;;;;;;;3.80;2.10;;;;;;;15.40;68.20;100040.94;4962903;28;20193;-73
2022/09/26 11:55:13;;;;;;;3.97;2.13;;;;;;;15.17;68.80;100040.34;4961976;28;20192;-72
2022/09/26 11:57:48;;;;;;;3.97;1.93;;;;;;;14.99;69.02;100037.97;4967085;28;20192;-72
2022/09/26 12:00:25;;;;;;;5.23;2.10;;;;;;;14.67;69.64;100037.47;4957875;28;20217;-72
2022/09/26 12:03:21;;;;;;;6.27;2.37;;;;;;;14.52;70.69;100043.66;4985297;28;20207;-72
2022/09/26 12:05:58;;;;;;;4.70;2.60;;;;;;;14.45;72.79;100025.69;4963701;28;20184;-72
2022/09/26 12:08:33;;;;;;;5.63;2.33;;;;;;;14.42;72.64;100031.72;4964223;28;20809;-72
2022/09/26 12:11:20;;;;;;;5.43;2.67;;;;;;;14.39;73.87;100026.59;4963754;28;20268;-72
2022/09/26 12:13:48;;;;;;;6.80;2.67;;;;;;;14.25;75.18;100022.41;4963457;28;20196;-72
2022/09/26 12:16:13;;;;;;;5.40;2.90;;;;;;;14.35;74.96;100024.03;4967835;28;20195;-72
2022/09/26 12:18:52;;;;;;;3.67;2.30;;;;;;;14.02;75.69;100024.28;4985721;28;20196;-72
2022/09/26 12:21:38;;;;;;;4.97;2.40;;;;;;;14.00;76.41;100021.72;4968120;28;20584;-72